Station History

Weather Underground - logo

Station Historical Data
Daily Summary for February 28, 2018 Units:  Both    English   Metric
« Previous Day
Next Day »
Daily Weekly Monthly Yearly Custom
  High: Low: Average:
Temperature: 58.0 °F /  14.4 °C 36.0 °F /  2.2 °C 47.9 °F /  8.8 °C
Dew Point: 42.3 °F /  5.7 °C 34.4 °F /  1.3 °C 39.1 °F /  3.9 °C
Humidity: 95 % 45 % 74 %
Wind Speed: 4.6 mph /  7.4 km/h - 0.7 mph /  1.1 km/h
Wind Gust: 4.6 mph /  7.4 km/h - -
Wind:- - SW
Pressure: 30.27 in /  1024.9 hPa 30.16 in /  1021.2 hPa -
Precipitation: 0.00 in /  0 mm    
Historical Graphs
 
 
Tabular Data for February 28, 2018
Time Temperature Dew Point Pressure Wind Wind Speed Wind Gust Humidity Rainfall Rate (Hourly)
00:01 36.0 °F /  2.2 °C 34.4 °F /  1.3 °C 30.17 in /  1021.6 hPa Calm     94 % 0.00 in /  0 mm
00:06 36.0 °F /  2.2 °C 34.4 °F /  1.3 °C 30.17 in /  1021.6 hPa Calm     94 % 0.00 in /  0 mm
00:11 36.1 °F /  2.3 °C 34.5 °F /  1.4 °C 30.18 in /  1021.9 hPa Calm     94 % 0.00 in /  0 mm
00:16 36.1 °F /  2.3 °C 34.5 °F /  1.4 °C 30.18 in /  1021.9 hPa Calm     94 % 0.00 in /  0 mm
00:21 36.3 °F /  2.4 °C 34.7 °F /  1.5 °C 30.18 in /  1021.9 hPa Calm     94 % 0.00 in /  0 mm
00:26 36.4 °F /  2.4 °C 34.8 °F /  1.6 °C 30.18 in /  1021.9 hPa Calm     94 % 0.00 in /  0 mm
00:31 36.6 °F /  2.6 °C 35.3 °F /  1.8 °C 30.18 in /  1021.9 hPa Calm     95 % 0.00 in /  0 mm
00:32 36.7 °F /  2.6 °C 35.4 °F /  1.9 °C 30.18 in /  1021.9 hPa Calm     95 % 0.00 in /  0 mm
00:37 36.8 °F /  2.7 °C 35.5 °F /  1.9 °C 30.18 in /  1021.9 hPa Calm     95 % 0.00 in /  0 mm
00:42 37.1 °F /  2.8 °C 35.8 °F /  2.1 °C 30.18 in /  1021.9 hPa Calm     95 % 0.00 in /  0 mm
00:47 37.3 °F /  2.9 °C 36.0 °F /  2.2 °C 30.18 in /  1021.9 hPa Calm     95 % 0.00 in /  0 mm
00:52 37.4 °F /  3 °C 36.1 °F /  2.3 °C 30.18 in /  1021.9 hPa Calm     95 % 0.00 in /  0 mm
00:57 37.5 °F /  3.1 °C 36.2 °F /  2.3 °C 30.18 in /  1021.9 hPa Calm     95 % 0.00 in /  0 mm
01:02 37.7 °F /  3.2 °C 36.4 °F /  2.4 °C 30.18 in /  1021.9 hPa Calm     95 % 0.00 in /  0 mm
01:07 37.8 °F /  3.2 °C 36.5 °F /  2.5 °C 30.18 in /  1021.9 hPa Calm     95 % 0.00 in /  0 mm
01:12 37.9 °F /  3.3 °C 36.6 °F /  2.6 °C 30.18 in /  1021.9 hPa Calm     95 % 0.00 in /  0 mm
01:17 38.1 °F /  3.4 °C 36.8 °F /  2.7 °C 30.18 in /  1021.9 hPa Calm     95 % 0.00 in /  0 mm
01:22 38.1 °F /  3.4 °C 36.5 °F /  2.5 °C 30.18 in /  1021.9 hPa Calm     94 % 0.00 in /  0 mm
01:27 38.3 °F /  3.5 °C 36.7 °F /  2.6 °C 30.18 in /  1021.9 hPa Calm     94 % 0.00 in /  0 mm
01:32 38.5 °F /  3.6 °C 36.9 °F /  2.7 °C 30.18 in /  1021.9 hPa Calm     94 % 0.00 in /  0 mm
01:37 38.4 °F /  3.6 °C 36.8 °F /  2.7 °C 30.18 in /  1021.9 hPa Calm     94 % 0.00 in /  0 mm
01:42 38.4 °F /  3.6 °C 36.8 °F /  2.7 °C 30.18 in /  1021.9 hPa Calm     94 % 0.00 in /  0 mm
01:47 38.4 °F /  3.6 °C 36.8 °F /  2.7 °C 30.18 in /  1021.9 hPa Calm     94 % 0.00 in /  0 mm
01:52 38.5 °F /  3.6 °C 36.9 °F /  2.7 °C 30.18 in /  1021.9 hPa Calm     94 % 0.00 in /  0 mm
01:57 38.6 °F /  3.7 °C 37.0 °F /  2.8 °C 30.18 in /  1021.9 hPa Calm     94 % 0.00 in /  0 mm
02:02 38.7 °F /  3.7 °C 37.1 °F /  2.8 °C 30.18 in /  1021.9 hPa Calm     94 % 0.00 in /  0 mm
02:07 38.9 °F /  3.8 °C 37.3 °F /  2.9 °C 30.18 in /  1021.9 hPa Calm     94 % 0.00 in /  0 mm
02:12 39.0 °F /  3.9 °C 37.4 °F /  3 °C 30.18 in /  1021.9 hPa Calm     94 % 0.00 in /  0 mm
02:17 39.0 °F /  3.9 °C 37.1 °F /  2.8 °C 30.18 in /  1021.9 hPa Calm     93 % 0.00 in /  0 mm
02:22 38.9 °F /  3.8 °C 37.0 °F /  2.8 °C 30.18 in /  1021.9 hPa Calm     93 % 0.00 in /  0 mm
02:27 38.9 °F /  3.8 °C 37.0 °F /  2.8 °C 30.18 in /  1021.9 hPa Calm     93 % 0.00 in /  0 mm
02:32 39.0 °F /  3.9 °C 37.1 °F /  2.8 °C 30.18 in /  1021.9 hPa Calm     93 % 0.00 in /  0 mm
02:37 39.0 °F /  3.9 °C 37.1 °F /  2.8 °C 30.18 in /  1021.9 hPa Calm     93 % 0.00 in /  0 mm
02:42 39.0 °F /  3.9 °C 37.1 °F /  2.8 °C 30.18 in /  1021.9 hPa Calm     93 % 0.00 in /  0 mm
02:47 39.1 °F /  3.9 °C 37.2 °F /  2.9 °C 30.18 in /  1021.9 hPa Calm     93 % 0.00 in /  0 mm
02:52 39.1 °F /  3.9 °C 37.2 °F /  2.9 °C 30.18 in /  1021.9 hPa Calm     93 % 0.00 in /  0 mm
02:57 39.2 °F /  4 °C 37.3 °F /  2.9 °C 30.18 in /  1021.9 hPa Calm     93 % 0.00 in /  0 mm
03:02 39.2 °F /  4 °C 37.3 °F /  2.9 °C 30.18 in /  1021.9 hPa Calm     93 % 0.00 in /  0 mm
03:07 39.2 °F /  4 °C 37.3 °F /  2.9 °C 30.18 in /  1021.9 hPa Calm     93 % 0.00 in /  0 mm
03:12 39.3 °F /  4.1 °C 37.4 °F /  3 °C 30.18 in /  1021.9 hPa Calm     93 % 0.00 in /  0 mm
03:17 39.2 °F /  4 °C 37.3 °F /  2.9 °C 30.18 in /  1021.9 hPa NW 1.2 mph /  1.9 km/h 1.2 mph /  1.9 km/h 93 % 0.00 in /  0 mm
03:22 39.2 °F /  4 °C 37.3 °F /  2.9 °C 30.18 in /  1021.9 hPa Calm     93 % 0.00 in /  0 mm
03:27 39.2 °F /  4 °C 37.3 °F /  2.9 °C 30.18 in /  1021.9 hPa Calm     93 % 0.00 in /  0 mm
03:32 39.3 °F /  4.1 °C 37.4 °F /  3 °C 30.18 in /  1021.9 hPa Calm     93 % 0.00 in /  0 mm
03:37 39.3 °F /  4.1 °C 37.4 °F /  3 °C 30.18 in /  1021.9 hPa Calm     93 % 0.00 in /  0 mm
03:42 39.4 °F /  4.1 °C 37.8 °F /  3.2 °C 30.18 in /  1021.9 hPa Calm     94 % 0.00 in /  0 mm
03:47 39.6 °F /  4.2 °C 38.0 °F /  3.3 °C 30.18 in /  1021.9 hPa Calm     94 % 0.00 in /  0 mm
03:52 39.7 °F /  4.3 °C 38.1 °F /  3.4 °C 30.18 in /  1021.9 hPa Calm     94 % 0.00 in /  0 mm
03:57 39.7 °F /  4.3 °C 38.1 °F /  3.4 °C 30.18 in /  1021.9 hPa Calm     94 % 0.00 in /  0 mm
04:02 39.9 °F /  4.4 °C 38.3 °F /  3.5 °C 30.18 in /  1021.9 hPa Calm     94 % 0.00 in /  0 mm
04:07 40.0 °F /  4.4 °C 38.1 °F /  3.4 °C 30.19 in /  1022.2 hPa Calm     93 % 0.00 in /  0 mm
04:12 40.2 °F /  4.6 °C 38.3 °F /  3.5 °C 30.19 in /  1022.2 hPa Calm     93 % 0.00 in /  0 mm
04:17 40.4 °F /  4.7 °C 38.5 °F /  3.6 °C 30.19 in /  1022.2 hPa Calm     93 % 0.00 in /  0 mm
04:22 40.6 °F /  4.8 °C 38.5 °F /  3.6 °C 30.19 in /  1022.2 hPa Calm     92 % 0.00 in /  0 mm
04:27 40.8 °F /  4.9 °C 38.7 °F /  3.7 °C 30.19 in /  1022.2 hPa Calm     92 % 0.00 in /  0 mm
04:32 40.8 °F /  4.9 °C 38.4 °F /  3.6 °C 30.19 in /  1022.2 hPa Calm     91 % 0.00 in /  0 mm
04:37 41.0 °F /  5 °C 38.9 °F /  3.8 °C 30.19 in /  1022.2 hPa Calm     92 % 0.00 in /  0 mm
04:42 41.1 °F /  5.1 °C 38.7 °F /  3.7 °C 30.20 in /  1022.6 hPa Calm     91 % 0.00 in /  0 mm
04:47 41.2 °F /  5.1 °C 38.8 °F /  3.8 °C 30.20 in /  1022.6 hPa Calm     91 % 0.00 in /  0 mm
04:52 41.3 °F /  5.2 °C 38.6 °F /  3.7 °C 30.20 in /  1022.6 hPa Calm     90 % 0.00 in /  0 mm
04:57 41.3 °F /  5.2 °C 38.6 °F /  3.7 °C 30.20 in /  1022.6 hPa Calm     90 % 0.00 in /  0 mm
05:03 41.3 °F /  5.2 °C 38.6 °F /  3.7 °C 30.20 in /  1022.6 hPa Calm     90 % 0.00 in /  0 mm
05:08 41.4 °F /  5.2 °C 38.7 °F /  3.7 °C 30.20 in /  1022.6 hPa Calm     90 % 0.00 in /  0 mm
05:13 41.5 °F /  5.3 °C 38.8 °F /  3.8 °C 30.20 in /  1022.6 hPa WNW 1.2 mph /  1.9 km/h 1.2 mph /  1.9 km/h 90 % 0.00 in /  0 mm
05:18 41.8 °F /  5.4 °C 38.8 °F /  3.8 °C 30.20 in /  1022.6 hPa WNW 1.0 mph /  1.6 km/h   89 % 0.00 in /  0 mm
05:23 42.1 °F /  5.6 °C 38.8 °F /  3.8 °C 30.20 in /  1022.6 hPa Calm     88 % 0.00 in /  0 mm
05:28 42.2 °F /  5.7 °C 38.6 °F /  3.7 °C 30.20 in /  1022.6 hPa Calm     87 % 0.00 in /  0 mm
05:33 42.3 °F /  5.7 °C 38.7 °F /  3.7 °C 30.21 in /  1022.9 hPa Calm     87 % 0.00 in /  0 mm
05:38 42.4 °F /  5.8 °C 38.8 °F /  3.8 °C 30.21 in /  1022.9 hPa Calm     87 % 0.00 in /  0 mm
05:43 42.4 °F /  5.8 °C 38.5 °F /  3.6 °C 30.21 in /  1022.9 hPa Calm     86 % 0.00 in /  0 mm
05:48 42.5 °F /  5.8 °C 38.6 °F /  3.7 °C 30.21 in /  1022.9 hPa Calm     86 % 0.00 in /  0 mm
05:53 42.6 °F /  5.9 °C 38.7 °F /  3.7 °C 30.21 in /  1022.9 hPa Calm     86 % 0.00 in /  0 mm
05:58 42.6 °F /  5.9 °C 38.7 °F /  3.7 °C 30.21 in /  1022.9 hPa Calm     86 % 0.00 in /  0 mm
06:03 42.7 °F /  5.9 °C 38.8 °F /  3.8 °C 30.21 in /  1022.9 hPa Calm     86 % 0.00 in /  0 mm
06:08 42.7 °F /  5.9 °C 39.1 °F /  3.9 °C 30.21 in /  1022.9 hPa Calm     87 % 0.00 in /  0 mm
06:13 42.9 °F /  6.1 °C 39.3 °F /  4.1 °C 30.21 in /  1022.9 hPa Calm     87 % 0.00 in /  0 mm
06:19 42.9 °F /  6.1 °C 39.6 °F /  4.2 °C 30.22 in /  1023.2 hPa WNW 1.2 mph /  1.9 km/h   88 % 0.00 in /  0 mm
06:24 42.9 °F /  6.1 °C 39.6 °F /  4.2 °C 30.22 in /  1023.2 hPa NNW 1.2 mph /  1.9 km/h   88 % 0.00 in /  0 mm
06:29 42.9 °F /  6.1 °C 39.9 °F /  4.4 °C 30.22 in /  1023.2 hPa Calm     89 % 0.00 in /  0 mm
06:34 42.8 °F /  6 °C 39.8 °F /  4.3 °C 30.22 in /  1023.2 hPa NNW 1.2 mph /  1.9 km/h 1.2 mph /  1.9 km/h 89 % 0.00 in /  0 mm
06:39 42.7 °F /  5.9 °C 40.0 °F /  4.4 °C 30.22 in /  1023.2 hPa NW 1.2 mph /  1.9 km/h 1.2 mph /  1.9 km/h 90 % 0.00 in /  0 mm
06:44 42.7 °F /  5.9 °C 40.0 °F /  4.4 °C 30.22 in /  1023.2 hPa Calm     90 % 0.00 in /  0 mm
06:49 42.8 °F /  6 °C 39.8 °F /  4.3 °C 30.22 in /  1023.2 hPa Calm     89 % 0.00 in /  0 mm
06:54 42.9 °F /  6.1 °C 39.9 °F /  4.4 °C 30.23 in /  1023.6 hPa Calm     89 % 0.00 in /  0 mm
06:59 43.0 °F /  6.1 °C 40.0 °F /  4.4 °C 30.23 in /  1023.6 hPa Calm     89 % 0.00 in /  0 mm
07:04 43.0 °F /  6.1 °C 40.0 °F /  4.4 °C 30.23 in /  1023.6 hPa Calm     89 % 0.00 in /  0 mm
07:09 42.9 °F /  6.1 °C 40.2 °F /  4.6 °C 30.23 in /  1023.6 hPa Calm     90 % 0.00 in /  0 mm
07:14 42.8 °F /  6 °C 40.1 °F /  4.5 °C 30.23 in /  1023.6 hPa Calm     90 % 0.00 in /  0 mm
07:19 42.8 °F /  6 °C 40.1 °F /  4.5 °C 30.24 in /  1023.9 hPa Calm     90 % 0.00 in /  0 mm
07:24 42.8 °F /  6 °C 40.4 °F /  4.7 °C 30.24 in /  1023.9 hPa Calm     91 % 0.00 in /  0 mm
07:29 42.9 °F /  6.1 °C 40.5 °F /  4.7 °C 30.25 in /  1024.3 hPa Calm     91 % 0.00 in /  0 mm
07:34 42.9 °F /  6.1 °C 40.5 °F /  4.7 °C 30.25 in /  1024.3 hPa Calm     91 % 0.00 in /  0 mm
07:39 43.1 °F /  6.2 °C 40.7 °F /  4.8 °C 30.25 in /  1024.3 hPa Calm     91 % 0.00 in /  0 mm
07:44 43.3 °F /  6.3 °C 40.6 °F /  4.8 °C 30.25 in /  1024.3 hPa Calm     90 % 0.00 in /  0 mm
07:49 43.5 °F /  6.4 °C 40.8 °F /  4.9 °C 30.25 in /  1024.3 hPa Calm     90 % 0.00 in /  0 mm
07:54 43.8 °F /  6.6 °C 41.1 °F /  5.1 °C 30.25 in /  1024.3 hPa Calm     90 % 0.00 in /  0 mm
07:59 44.1 °F /  6.7 °C 41.4 °F /  5.2 °C 30.25 in /  1024.3 hPa Calm     90 % 0.00 in /  0 mm
08:04 44.5 °F /  6.9 °C 41.5 °F /  5.3 °C 30.25 in /  1024.3 hPa Calm     89 % 0.00 in /  0 mm
08:09 45.0 °F /  7.2 °C 41.7 °F /  5.4 °C 30.25 in /  1024.3 hPa Calm     88 % 0.00 in /  0 mm
08:14 45.6 °F /  7.6 °C 41.4 °F /  5.2 °C 30.26 in /  1024.6 hPa Calm     85 % 0.00 in /  0 mm
08:19 46.1 °F /  7.8 °C 41.5 °F /  5.3 °C 30.25 in /  1024.3 hPa Calm     84 % 0.00 in /  0 mm
08:24 47.4 °F /  8.6 °C 41.9 °F /  5.5 °C 30.25 in /  1024.3 hPa Calm     81 % 0.00 in /  0 mm
08:29 47.8 °F /  8.8 °C 41.6 °F /  5.3 °C 30.26 in /  1024.6 hPa WSW 1.0 mph /  1.6 km/h 1.0 mph /  1.6 km/h 79 % 0.00 in /  0 mm
08:34 47.9 °F /  8.8 °C 41.0 °F /  5 °C 30.26 in /  1024.6 hPa West 1.2 mph /  1.9 km/h   77 % 0.00 in /  0 mm
08:39 48.5 °F /  9.2 °C 41.3 °F /  5.2 °C 30.26 in /  1024.6 hPa WNW 1.2 mph /  1.9 km/h   76 % 0.00 in /  0 mm
08:44 49.2 °F /  9.6 °C 41.3 °F /  5.2 °C 30.26 in /  1024.6 hPa NW 1.2 mph /  1.9 km/h   74 % 0.00 in /  0 mm
08:49 49.4 °F /  9.7 °C 41.1 °F /  5.1 °C 30.26 in /  1024.6 hPa Calm     73 % 0.00 in /  0 mm
08:54 50.1 °F /  10.1 °C 41.1 °F /  5.1 °C 30.26 in /  1024.6 hPa Calm     71 % 0.00 in /  0 mm
08:59 50.9 °F /  10.5 °C 41.8 °F /  5.4 °C 30.26 in /  1024.6 hPa East 1.0 mph /  1.6 km/h   71 % 0.00 in /  0 mm
09:04 51.4 °F /  10.8 °C 42.3 °F /  5.7 °C 30.26 in /  1024.6 hPa SE 1.2 mph /  1.9 km/h   71 % 0.00 in /  0 mm
09:09 51.9 °F /  11.1 °C 42.0 °F /  5.6 °C 30.26 in /  1024.6 hPa Calm     69 % 0.00 in /  0 mm
09:14 52.1 °F /  11.2 °C 41.5 °F /  5.3 °C 30.26 in /  1024.6 hPa SE 1.2 mph /  1.9 km/h   67 % 0.00 in /  0 mm
09:19 51.8 °F /  11 °C 41.2 °F /  5.1 °C 30.26 in /  1024.6 hPa NE 2.3 mph /  3.7 km/h 2.3 mph /  3.7 km/h 67 % 0.00 in /  0 mm
09:24 51.6 °F /  10.9 °C 41.0 °F /  5 °C 30.27 in /  1024.9 hPa SSE 1.2 mph /  1.9 km/h 1.2 mph /  1.9 km/h 67 % 0.00 in /  0 mm
09:29 52.0 °F /  11.1 °C 41.0 °F /  5 °C 30.27 in /  1024.9 hPa SE 3.5 mph /  5.6 km/h 3.5 mph /  5.6 km/h 66 % 0.00 in /  0 mm
09:34 52.5 °F /  11.4 °C 41.1 °F /  5.1 °C 30.27 in /  1024.9 hPa SE 3.5 mph /  5.6 km/h 3.5 mph /  5.6 km/h 65 % 0.00 in /  0 mm
09:39 52.6 °F /  11.4 °C 40.4 °F /  4.7 °C 30.26 in /  1024.6 hPa NNW 2.3 mph /  3.7 km/h 2.3 mph /  3.7 km/h 63 % 0.00 in /  0 mm
09:44 52.2 °F /  11.2 °C 40.4 °F /  4.7 °C 30.27 in /  1024.9 hPa SE 1.2 mph /  1.9 km/h 1.2 mph /  1.9 km/h 64 % 0.00 in /  0 mm
09:49 52.3 °F /  11.3 °C 40.1 °F /  4.5 °C 30.27 in /  1024.9 hPa North 2.3 mph /  3.7 km/h 2.3 mph /  3.7 km/h 63 % 0.00 in /  0 mm
09:54 52.3 °F /  11.3 °C 40.1 °F /  4.5 °C 30.27 in /  1024.9 hPa NNW 2.3 mph /  3.7 km/h 2.3 mph /  3.7 km/h 63 % 0.00 in /  0 mm
09:59 52.2 °F /  11.2 °C 40.8 °F /  4.9 °C 30.27 in /  1024.9 hPa South 2.0 mph /  3.2 km/h 2.0 mph /  3.2 km/h 65 % 0.00 in /  0 mm
10:04 53.1 °F /  11.7 °C 39.1 °F /  3.9 °C 30.27 in /  1024.9 hPa South 3.0 mph /  4.8 km/h 3.0 mph /  4.8 km/h 59 % 0.00 in /  0 mm
10:09 53.3 °F /  11.8 °C 39.8 °F /  4.3 °C 30.27 in /  1024.9 hPa NNW 2.3 mph /  3.7 km/h 2.3 mph /  3.7 km/h 60 % 0.00 in /  0 mm
10:14 53.7 °F /  12.1 °C 38.8 °F /  3.8 °C 30.27 in /  1024.9 hPa SSE 3.0 mph /  4.8 km/h 3.0 mph /  4.8 km/h 57 % 0.00 in /  0 mm
10:19 54.0 °F /  12.2 °C 37.7 °F /  3.2 °C 30.27 in /  1024.9 hPa Calm     54 % 0.00 in /  0 mm
10:24 54.1 °F /  12.3 °C 38.7 °F /  3.7 °C 30.26 in /  1024.6 hPa NNW 3.5 mph /  5.6 km/h 3.5 mph /  5.6 km/h 56 % 0.00 in /  0 mm
10:29 54.3 °F /  12.4 °C 39.8 °F /  4.3 °C 30.26 in /  1024.6 hPa South 1.2 mph /  1.9 km/h 1.2 mph /  1.9 km/h 58 % 0.00 in /  0 mm
10:34 54.7 °F /  12.6 °C 38.4 °F /  3.6 °C 30.26 in /  1024.6 hPa SSE 2.3 mph /  3.7 km/h 2.3 mph /  3.7 km/h 54 % 0.00 in /  0 mm
10:39 54.4 °F /  12.4 °C 38.6 °F /  3.7 °C 30.26 in /  1024.6 hPa SE 3.5 mph /  5.6 km/h 3.5 mph /  5.6 km/h 55 % 0.00 in /  0 mm
10:44 54.5 °F /  12.5 °C 39.1 °F /  3.9 °C 30.26 in /  1024.6 hPa SE 1.2 mph /  1.9 km/h 1.2 mph /  1.9 km/h 56 % 0.00 in /  0 mm
10:50 54.8 °F /  12.7 °C 38.0 °F /  3.3 °C 30.26 in /  1024.6 hPa NNE 1.2 mph /  1.9 km/h 1.2 mph /  1.9 km/h 53 % 0.00 in /  0 mm
10:54 54.4 °F /  12.4 °C 38.1 °F /  3.4 °C 30.26 in /  1024.6 hPa WNW 3.5 mph /  5.6 km/h 3.5 mph /  5.6 km/h 54 % 0.00 in /  0 mm
11:00 55.0 °F /  12.8 °C 39.1 °F /  3.9 °C 30.26 in /  1024.6 hPa ESE 2.3 mph /  3.7 km/h 2.3 mph /  3.7 km/h 55 % 0.00 in /  0 mm
11:05 55.8 °F /  13.2 °C 39.9 °F /  4.4 °C 30.26 in /  1024.6 hPa South 2.3 mph /  3.7 km/h 2.3 mph /  3.7 km/h 55 % 0.00 in /  0 mm
11:10 56.3 °F /  13.5 °C 39.4 °F /  4.1 °C 30.26 in /  1024.6 hPa SSW 2.3 mph /  3.7 km/h 2.3 mph /  3.7 km/h 53 % 0.00 in /  0 mm
11:15 55.7 °F /  13.2 °C 37.8 °F /  3.2 °C 30.26 in /  1024.6 hPa ESE 3.5 mph /  5.6 km/h 3.5 mph /  5.6 km/h 51 % 0.00 in /  0 mm
11:20 55.1 °F /  12.8 °C 38.3 °F /  3.5 °C 30.26 in /  1024.6 hPa East 1.2 mph /  1.9 km/h 1.2 mph /  1.9 km/h 53 % 0.00 in /  0 mm
11:25 55.4 °F /  13 °C 39.0 °F /  3.9 °C 30.26 in /  1024.6 hPa SSW 1.2 mph /  1.9 km/h 1.2 mph /  1.9 km/h 54 % 0.00 in /  0 mm
11:30 55.6 °F /  13.1 °C 38.7 °F /  3.7 °C 30.26 in /  1024.6 hPa SSE 3.5 mph /  5.6 km/h 3.5 mph /  5.6 km/h 53 % 0.00 in /  0 mm
11:35 55.6 °F /  13.1 °C 37.7 °F /  3.2 °C 30.25 in /  1024.3 hPa West 3.5 mph /  5.6 km/h 3.5 mph /  5.6 km/h 51 % 0.00 in /  0 mm
11:40 55.6 °F /  13.1 °C 39.2 °F /  4 °C 30.25 in /  1024.3 hPa NW 3.5 mph /  5.6 km/h 3.5 mph /  5.6 km/h 54 % 0.00 in /  0 mm
11:45 55.8 °F /  13.2 °C 39.4 °F /  4.1 °C 30.25 in /  1024.3 hPa NNW 2.3 mph /  3.7 km/h 2.3 mph /  3.7 km/h 54 % 0.00 in /  0 mm
11:50 56.3 °F /  13.5 °C 38.9 °F /  3.8 °C 30.25 in /  1024.3 hPa South 3.5 mph /  5.6 km/h 3.5 mph /  5.6 km/h 52 % 0.00 in /  0 mm
11:55 56.4 °F /  13.6 °C 39.5 °F /  4.2 °C 30.25 in /  1024.3 hPa ENE 2.3 mph /  3.7 km/h 2.3 mph /  3.7 km/h 53 % 0.00 in /  0 mm
12:00 56.7 °F /  13.7 °C 38.8 °F /  3.8 °C 30.25 in /  1024.3 hPa SSW 3.5 mph /  5.6 km/h 3.5 mph /  5.6 km/h 51 % 0.00 in /  0 mm
12:05 57.0 °F /  13.9 °C 39.0 °F /  3.9 °C 30.25 in /  1024.3 hPa SSW 2.3 mph /  3.7 km/h 2.3 mph /  3.7 km/h 51 % 0.00 in /  0 mm
12:10 57.2 °F /  14 °C 38.2 °F /  3.4 °C 30.24 in /  1023.9 hPa NW 2.3 mph /  3.7 km/h 2.3 mph /  3.7 km/h 49 % 0.00 in /  0 mm
12:15 57.1 °F /  13.9 °C 38.1 °F /  3.4 °C 30.24 in /  1023.9 hPa SSW 2.3 mph /  3.7 km/h 2.3 mph /  3.7 km/h 49 % 0.00 in /  0 mm
12:20 57.5 °F /  14.2 °C 38.5 °F /  3.6 °C 30.24 in /  1023.9 hPa NW 3.5 mph /  5.6 km/h 3.5 mph /  5.6 km/h 49 % 0.00 in /  0 mm
12:25 57.0 °F /  13.9 °C 38.5 °F /  3.6 °C 30.24 in /  1023.9 hPa SSE 4.0 mph /  6.4 km/h 4.0 mph /  6.4 km/h 50 % 0.00 in /  0 mm
12:30 56.9 °F /  13.8 °C 38.4 °F /  3.6 °C 30.23 in /  1023.6 hPa NNW 3.0 mph /  4.8 km/h 3.0 mph /  4.8 km/h 50 % 0.00 in /  0 mm
12:35 56.7 °F /  13.7 °C 37.7 °F /  3.2 °C 30.23 in /  1023.6 hPa NW 3.5 mph /  5.6 km/h 3.5 mph /  5.6 km/h 49 % 0.00 in /  0 mm
12:40 56.9 °F /  13.8 °C 37.9 °F /  3.3 °C 30.23 in /  1023.6 hPa North 3.5 mph /  5.6 km/h 3.5 mph /  5.6 km/h 49 % 0.00 in /  0 mm
12:45 56.8 °F /  13.8 °C 38.9 °F /  3.8 °C 30.23 in /  1023.6 hPa NW 1.2 mph /  1.9 km/h 1.2 mph /  1.9 km/h 51 % 0.00 in /  0 mm
12:50 56.6 °F /  13.7 °C 38.7 °F /  3.7 °C 30.22 in /  1023.2 hPa WNW 1.2 mph /  1.9 km/h 1.2 mph /  1.9 km/h 51 % 0.00 in /  0 mm
12:55 56.3 °F /  13.5 °C 37.9 °F /  3.3 °C 30.22 in /  1023.2 hPa NNW 2.3 mph /  3.7 km/h 2.3 mph /  3.7 km/h 50 % 0.00 in /  0 mm
13:00 56.3 °F /  13.5 °C 37.9 °F /  3.3 °C 30.22 in /  1023.2 hPa North 2.3 mph /  3.7 km/h 2.3 mph /  3.7 km/h 50 % 0.00 in /  0 mm
13:05 57.1 °F /  13.9 °C 39.1 °F /  3.9 °C 30.22 in /  1023.2 hPa SSE 2.0 mph /  3.2 km/h 2.0 mph /  3.2 km/h 51 % 0.00 in /  0 mm
13:10 57.7 °F /  14.3 °C 38.1 °F /  3.4 °C 30.22 in /  1023.2 hPa SSE 4.6 mph /  7.4 km/h 4.6 mph /  7.4 km/h 48 % 0.00 in /  0 mm
13:15 57.9 °F /  14.4 °C 38.8 °F /  3.8 °C 30.21 in /  1022.9 hPa South 3.5 mph /  5.6 km/h 3.5 mph /  5.6 km/h 49 % 0.00 in /  0 mm
13:21 57.9 °F /  14.4 °C 36.7 °F /  2.6 °C 30.21 in /  1022.9 hPa Calm     45 % 0.00 in /  0 mm
13:26 57.7 °F /  14.3 °C 39.2 °F /  4 °C 30.21 in /  1022.9 hPa West 2.3 mph /  3.7 km/h   50 % 0.00 in /  0 mm
13:31 57.5 °F /  14.2 °C 39.0 °F /  3.9 °C 30.21 in /  1022.9 hPa NNW 1.2 mph /  1.9 km/h 1.2 mph /  1.9 km/h 50 % 0.00 in /  0 mm
13:36 57.2 °F /  14 °C 39.2 °F /  4 °C 30.20 in /  1022.6 hPa WSW 3.5 mph /  5.6 km/h 3.5 mph /  5.6 km/h 51 % 0.00 in /  0 mm
13:41 57.5 °F /  14.2 °C 39.0 °F /  3.9 °C 30.20 in /  1022.6 hPa WNW 1.2 mph /  1.9 km/h 1.2 mph /  1.9 km/h 50 % 0.00 in /  0 mm
13:46 57.6 °F /  14.2 °C 40.1 °F /  4.5 °C 30.20 in /  1022.6 hPa NE 3.5 mph /  5.6 km/h 3.5 mph /  5.6 km/h 52 % 0.00 in /  0 mm
13:51 57.8 °F /  14.3 °C 39.3 °F /  4.1 °C 30.20 in /  1022.6 hPa South 1.2 mph /  1.9 km/h 1.2 mph /  1.9 km/h 50 % 0.00 in /  0 mm
13:56 57.7 °F /  14.3 °C 39.2 °F /  4 °C 30.20 in /  1022.6 hPa SSE 3.5 mph /  5.6 km/h 3.5 mph /  5.6 km/h 50 % 0.00 in /  0 mm
14:01 57.4 °F /  14.1 °C 38.9 °F /  3.8 °C 30.19 in /  1022.2 hPa WNW 3.5 mph /  5.6 km/h 3.5 mph /  5.6 km/h 50 % 0.00 in /  0 mm
14:06 57.2 °F /  14 °C 38.7 °F /  3.7 °C 30.19 in /  1022.2 hPa NW 3.5 mph /  5.6 km/h 3.5 mph /  5.6 km/h 50 % 0.00 in /  0 mm
14:11 57.4 °F /  14.1 °C 38.9 °F /  3.8 °C 30.19 in /  1022.2 hPa SSW 3.0 mph /  4.8 km/h 3.0 mph /  4.8 km/h 50 % 0.00 in /  0 mm
14:16 57.8 °F /  14.3 °C 39.3 °F /  4.1 °C 30.19 in /  1022.2 hPa NW 1.0 mph /  1.6 km/h 1.0 mph /  1.6 km/h 50 % 0.00 in /  0 mm
14:21 57.2 °F /  14 °C 39.2 °F /  4 °C 30.19 in /  1022.2 hPa North 1.2 mph /  1.9 km/h 1.2 mph /  1.9 km/h 51 % 0.00 in /  0 mm
14:26 57.3 °F /  14.1 °C 39.3 °F /  4.1 °C 30.19 in /  1022.2 hPa NW 1.2 mph /  1.9 km/h 1.2 mph /  1.9 km/h 51 % 0.00 in /  0 mm
14:31 57.6 °F /  14.2 °C 39.1 °F /  3.9 °C 30.19 in /  1022.2 hPa SSE 1.2 mph /  1.9 km/h 1.2 mph /  1.9 km/h 50 % 0.00 in /  0 mm
14:36 57.8 °F /  14.3 °C 39.8 °F /  4.3 °C 30.19 in /  1022.2 hPa South 1.0 mph /  1.6 km/h   51 % 0.00 in /  0 mm
14:41 58.0 °F /  14.4 °C 39.5 °F /  4.2 °C 30.19 in /  1022.2 hPa WNW 2.3 mph /  3.7 km/h 2.3 mph /  3.7 km/h 50 % 0.00 in /  0 mm
14:46 57.4 °F /  14.1 °C 38.9 °F /  3.8 °C 30.19 in /  1022.2 hPa NE 3.5 mph /  5.6 km/h 3.5 mph /  5.6 km/h 50 % 0.00 in /  0 mm
14:51 56.7 °F /  13.7 °C 39.3 °F /  4.1 °C 30.19 in /  1022.2 hPa NNW 1.2 mph /  1.9 km/h 1.2 mph /  1.9 km/h 52 % 0.00 in /  0 mm
14:56 56.7 °F /  13.7 °C 38.8 °F /  3.8 °C 30.19 in /  1022.2 hPa WNW 2.3 mph /  3.7 km/h 2.3 mph /  3.7 km/h 51 % 0.00 in /  0 mm
15:01 56.6 °F /  13.7 °C 39.2 °F /  4 °C 30.19 in /  1022.2 hPa WNW 2.3 mph /  3.7 km/h   52 % 0.00 in /  0 mm
15:06 57.2 °F /  14 °C 39.7 °F /  4.3 °C 30.19 in /  1022.2 hPa NNW 3.5 mph /  5.6 km/h 3.5 mph /  5.6 km/h 52 % 0.00 in /  0 mm
15:11 57.7 °F /  14.3 °C 39.2 °F /  4 °C 30.19 in /  1022.2 hPa SSW 1.2 mph /  1.9 km/h 1.2 mph /  1.9 km/h 50 % 0.00 in /  0 mm
15:16 57.8 °F /  14.3 °C 39.3 °F /  4.1 °C 30.18 in /  1021.9 hPa Calm     50 % 0.00 in /  0 mm
15:21 57.4 °F /  14.1 °C 38.9 °F /  3.8 °C 30.18 in /  1021.9 hPa NNE 1.2 mph /  1.9 km/h   50 % 0.00 in /  0 mm
15:26 57.0 °F /  13.9 °C 39.5 °F /  4.2 °C 30.18 in /  1021.9 hPa NW 3.5 mph /  5.6 km/h 3.5 mph /  5.6 km/h 52 % 0.00 in /  0 mm
15:31 56.8 °F /  13.8 °C 39.4 °F /  4.1 °C 30.18 in /  1021.9 hPa SSW 2.3 mph /  3.7 km/h 2.3 mph /  3.7 km/h 52 % 0.00 in /  0 mm
15:36 56.7 °F /  13.7 °C 39.3 °F /  4.1 °C 30.18 in /  1021.9 hPa NNW 1.2 mph /  1.9 km/h 1.2 mph /  1.9 km/h 52 % 0.00 in /  0 mm
15:41 56.9 °F /  13.8 °C 39.4 °F /  4.1 °C 30.17 in /  1021.6 hPa Calm     52 % 0.00 in /  0 mm
15:46 56.9 °F /  13.8 °C 39.4 °F /  4.1 °C 30.17 in /  1021.6 hPa Calm     52 % 0.00 in /  0 mm
15:51 56.8 °F /  13.8 °C 38.9 °F /  3.8 °C 30.17 in /  1021.6 hPa North 1.2 mph /  1.9 km/h   51 % 0.00 in /  0 mm
15:56 56.7 °F /  13.7 °C 38.8 °F /  3.8 °C 30.17 in /  1021.6 hPa East 1.2 mph /  1.9 km/h 1.2 mph /  1.9 km/h 51 % 0.00 in /  0 mm
16:01 56.7 °F /  13.7 °C 39.7 °F /  4.3 °C 30.17 in /  1021.6 hPa West 3.5 mph /  5.6 km/h 3.5 mph /  5.6 km/h 53 % 0.00 in /  0 mm
16:06 56.5 °F /  13.6 °C 39.6 °F /  4.2 °C 30.17 in /  1021.6 hPa Calm     53 % 0.00 in /  0 mm
16:11 56.4 °F /  13.6 °C 39.5 °F /  4.2 °C 30.17 in /  1021.6 hPa Calm     53 % 0.00 in /  0 mm
16:16 56.4 °F /  13.6 °C 39.5 °F /  4.2 °C 30.17 in /  1021.6 hPa West 3.5 mph /  5.6 km/h 3.5 mph /  5.6 km/h 53 % 0.00 in /  0 mm
16:21 56.1 °F /  13.4 °C 39.2 °F /  4 °C 30.17 in /  1021.6 hPa Calm     53 % 0.00 in /  0 mm
16:26 55.8 °F /  13.2 °C 39.4 °F /  4.1 °C 30.17 in /  1021.6 hPa North 1.2 mph /  1.9 km/h 1.2 mph /  1.9 km/h 54 % 0.00 in /  0 mm
16:31 55.8 °F /  13.2 °C 39.4 °F /  4.1 °C 30.17 in /  1021.6 hPa Calm     54 % 0.00 in /  0 mm
16:36 55.7 °F /  13.2 °C 38.8 °F /  3.8 °C 30.17 in /  1021.6 hPa Calm     53 % 0.00 in /  0 mm
16:41 55.6 °F /  13.1 °C 39.7 °F /  4.3 °C 30.17 in /  1021.6 hPa NW 1.2 mph /  1.9 km/h   55 % 0.00 in /  0 mm
16:46 55.6 °F /  13.1 °C 39.7 °F /  4.3 °C 30.17 in /  1021.6 hPa Calm     55 % 0.00 in /  0 mm
16:51 55.6 °F /  13.1 °C 39.7 °F /  4.3 °C 30.17 in /  1021.6 hPa Calm     55 % 0.00 in /  0 mm
16:56 55.8 °F /  13.2 °C 39.9 °F /  4.4 °C 30.17 in /  1021.6 hPa NNW 1.2 mph /  1.9 km/h   55 % 0.00 in /  0 mm
17:01 55.8 °F /  13.2 °C 38.9 °F /  3.8 °C 30.17 in /  1021.6 hPa Calm     53 % 0.00 in /  0 mm
17:06 55.7 °F /  13.2 °C 39.3 °F /  4.1 °C 30.17 in /  1021.6 hPa Calm     54 % 0.00 in /  0 mm
17:11 55.7 °F /  13.2 °C 39.3 °F /  4.1 °C 30.17 in /  1021.6 hPa Calm     54 % 0.00 in /  0 mm
17:16 55.6 °F /  13.1 °C 39.2 °F /  4 °C 30.16 in /  1021.2 hPa Calm     54 % 0.00 in /  0 mm
17:21 55.4 °F /  13 °C 39.5 °F /  4.2 °C 30.16 in /  1021.2 hPa Calm     55 % 0.00 in /  0 mm
17:26 55.1 °F /  12.8 °C 39.2 °F /  4 °C 30.16 in /  1021.2 hPa Calm     55 % 0.00 in /  0 mm
17:31 54.7 °F /  12.6 °C 39.8 °F /  4.3 °C 30.16 in /  1021.2 hPa Calm     57 % 0.00 in /  0 mm
17:36 54.3 °F /  12.4 °C 39.4 °F /  4.1 °C 30.16 in /  1021.2 hPa Calm     57 % 0.00 in /  0 mm
17:41 53.9 °F /  12.2 °C 39.5 °F /  4.2 °C 30.16 in /  1021.2 hPa Calm     58 % 0.00 in /  0 mm
17:46 53.5 °F /  11.9 °C 39.9 °F /  4.4 °C 30.16 in /  1021.2 hPa Calm     60 % 0.00 in /  0 mm
17:51 53.0 °F /  11.7 °C 40.3 °F /  4.6 °C 30.16 in /  1021.2 hPa Calm     62 % 0.00 in /  0 mm
17:56 52.6 °F /  11.4 °C 40.8 °F /  4.9 °C 30.16 in /  1021.2 hPa Calm     64 % 0.00 in /  0 mm
18:01 52.1 °F /  11.2 °C 39.9 °F /  4.4 °C 30.16 in /  1021.2 hPa Calm     63 % 0.00 in /  0 mm
18:06 51.7 °F /  10.9 °C 39.9 °F /  4.4 °C 30.16 in /  1021.2 hPa Calm     64 % 0.00 in /  0 mm
18:11 51.3 °F /  10.7 °C 39.9 °F /  4.4 °C 30.16 in /  1021.2 hPa Calm     65 % 0.00 in /  0 mm
18:16 51.0 °F /  10.6 °C 40.0 °F /  4.4 °C 30.16 in /  1021.2 hPa Calm     66 % 0.00 in /  0 mm
18:21 50.7 °F /  10.4 °C 40.5 °F /  4.7 °C 30.16 in /  1021.2 hPa Calm     68 % 0.00 in /  0 mm
18:26 50.3 °F /  10.2 °C 40.9 °F /  4.9 °C 30.16 in /  1021.2 hPa Calm     70 % 0.00 in /  0 mm
18:31 49.8 °F /  9.9 °C 40.8 °F /  4.9 °C 30.16 in /  1021.2 hPa Calm     71 % 0.00 in /  0 mm
18:36 49.4 °F /  9.7 °C 41.1 °F /  5.1 °C 30.16 in /  1021.2 hPa Calm     73 % 0.00 in /  0 mm
18:41 48.9 °F /  9.4 °C 41.0 °F /  5 °C 30.17 in /  1021.6 hPa Calm     74 % 0.00 in /  0 mm
18:47 48.6 °F /  9.2 °C 41.0 °F /  5 °C 30.17 in /  1021.6 hPa Calm     75 % 0.00 in /  0 mm
18:51 48.2 °F /  9 °C 40.3 °F /  4.6 °C 30.17 in /  1021.6 hPa Calm     74 % 0.00 in /  0 mm
18:56 48.1 °F /  8.9 °C 41.2 °F /  5.1 °C 30.17 in /  1021.6 hPa Calm     77 % 0.00 in /  0 mm
19:02 48.1 °F /  8.9 °C 41.2 °F /  5.1 °C 30.17 in /  1021.6 hPa Calm     77 % 0.00 in /  0 mm
19:07 48.0 °F /  8.9 °C 40.8 °F /  4.9 °C 30.17 in /  1021.6 hPa Calm     76 % 0.00 in /  0 mm
19:12 48.0 °F /  8.9 °C 40.8 °F /  4.9 °C 30.17 in /  1021.6 hPa Calm     76 % 0.00 in /  0 mm
19:17 47.9 °F /  8.8 °C 40.7 °F /  4.8 °C 30.17 in /  1021.6 hPa Calm     76 % 0.00 in /  0 mm
19:22 47.9 °F /  8.8 °C 41.4 °F /  5.2 °C 30.17 in /  1021.6 hPa Calm     78 % 0.00 in /  0 mm
19:27 47.6 °F /  8.7 °C 41.1 °F /  5.1 °C 30.17 in /  1021.6 hPa Calm     78 % 0.00 in /  0 mm
19:32 47.5 °F /  8.6 °C 40.6 °F /  4.8 °C 30.17 in /  1021.6 hPa Calm     77 % 0.00 in /  0 mm
19:37 47.3 °F /  8.5 °C 40.8 °F /  4.9 °C 30.17 in /  1021.6 hPa Calm     78 % 0.00 in /  0 mm
19:42 47.2 °F /  8.4 °C 40.7 °F /  4.8 °C 30.17 in /  1021.6 hPa Calm     78 % 0.00 in /  0 mm
19:47 47.1 °F /  8.4 °C 40.6 °F /  4.8 °C 30.17 in /  1021.6 hPa Calm     78 % 0.00 in /  0 mm
19:52 47.0 °F /  8.3 °C 40.2 °F /  4.6 °C 30.17 in /  1021.6 hPa Calm     77 % 0.00 in /  0 mm
19:57 48.3 °F /  9.1 °C 40.0 °F /  4.4 °C 30.17 in /  1021.6 hPa Calm     73 % 0.00 in /  0 mm
20:02 49.1 °F /  9.5 °C 40.1 °F /  4.5 °C 30.17 in /  1021.6 hPa Calm     71 % 0.00 in /  0 mm
20:07 49.4 °F /  9.7 °C 40.0 °F /  4.4 °C 30.17 in /  1021.6 hPa Calm     70 % 0.00 in /  0 mm
20:12 49.5 °F /  9.7 °C 40.5 °F /  4.7 °C 30.17 in /  1021.6 hPa Calm     71 % 0.00 in /  0 mm
20:17 49.2 °F /  9.6 °C 40.6 °F /  4.8 °C 30.17 in /  1021.6 hPa Calm     72 % 0.00 in /  0 mm
20:22 48.8 °F /  9.3 °C 40.9 °F /  4.9 °C 30.17 in /  1021.6 hPa Calm     74 % 0.00 in /  0 mm
20:27 48.3 °F /  9.1 °C 40.7 °F /  4.8 °C 30.18 in /  1021.9 hPa Calm     75 % 0.00 in /  0 mm
20:32 47.8 °F /  8.8 °C 40.6 °F /  4.8 °C 30.18 in /  1021.9 hPa Calm     76 % 0.00 in /  0 mm
20:37 47.5 °F /  8.6 °C 40.3 °F /  4.6 °C 30.18 in /  1021.9 hPa Calm     76 % 0.00 in /  0 mm
20:42 47.3 °F /  8.5 °C 40.5 °F /  4.7 °C 30.18 in /  1021.9 hPa Calm     77 % 0.00 in /  0 mm
20:47 47.2 °F /  8.4 °C 40.4 °F /  4.7 °C 30.18 in /  1021.9 hPa Calm     77 % 0.00 in /  0 mm
20:52 47.2 °F /  8.4 °C 40.4 °F /  4.7 °C 30.18 in /  1021.9 hPa Calm     77 % 0.00 in /  0 mm
20:57 47.0 °F /  8.3 °C 40.5 °F /  4.7 °C 30.18 in /  1021.9 hPa Calm     78 % 0.00 in /  0 mm
21:02 46.4 °F /  8 °C 39.9 °F /  4.4 °C 30.18 in /  1021.9 hPa Calm     78 % 0.00 in /  0 mm
21:07 46.0 °F /  7.8 °C 39.9 °F /  4.4 °C 30.18 in /  1021.9 hPa Calm     79 % 0.00 in /  0 mm
21:12 45.8 °F /  7.7 °C 39.7 °F /  4.3 °C 30.18 in /  1021.9 hPa Calm     79 % 0.00 in /  0 mm
21:17 45.8 °F /  7.7 °C 39.7 °F /  4.3 °C 30.18 in /  1021.9 hPa Calm     79 % 0.00 in /  0 mm
21:22 45.9 °F /  7.7 °C 39.8 °F /  4.3 °C 30.18 in /  1021.9 hPa Calm     79 % 0.00 in /  0 mm
21:27 45.9 °F /  7.7 °C 39.8 °F /  4.3 °C 30.18 in /  1021.9 hPa Calm     79 % 0.00 in /  0 mm
21:32 45.7 °F /  7.6 °C 39.6 °F /  4.2 °C 30.18 in /  1021.9 hPa Calm     79 % 0.00 in /  0 mm
21:37 45.5 °F /  7.5 °C 39.7 °F /  4.3 °C 30.18 in /  1021.9 hPa Calm     80 % 0.00 in /  0 mm
21:42 45.3 °F /  7.4 °C 39.8 °F /  4.3 °C 30.19 in /  1022.2 hPa Calm     81 % 0.00 in /  0 mm
21:47 45.1 °F /  7.3 °C 39.6 °F /  4.2 °C 30.18 in /  1021.9 hPa Calm     81 % 0.00 in /  0 mm
21:52 44.9 °F /  7.2 °C 39.4 °F /  4.1 °C 30.18 in /  1021.9 hPa Calm     81 % 0.00 in /  0 mm
21:57 44.8 °F /  7.1 °C 39.3 °F /  4.1 °C 30.18 in /  1021.9 hPa Calm     81 % 0.00 in /  0 mm
22:02 44.7 °F /  7.1 °C 39.2 °F /  4 °C 30.18 in /  1021.9 hPa Calm     81 % 0.00 in /  0 mm
22:07 44.5 °F /  6.9 °C 39.3 °F /  4.1 °C 30.17 in /  1021.6 hPa Calm     82 % 0.00 in /  0 mm
22:12 44.4 °F /  6.9 °C 39.2 °F /  4 °C 30.18 in /  1021.9 hPa Calm     82 % 0.00 in /  0 mm
22:17 44.2 °F /  6.8 °C 39.1 °F /  3.9 °C 30.17 in /  1021.6 hPa Calm     82 % 0.00 in /  0 mm
22:22 44.0 °F /  6.7 °C 39.2 °F /  4 °C 30.17 in /  1021.6 hPa Calm     83 % 0.00 in /  0 mm
22:27 44.1 °F /  6.7 °C 39.6 °F /  4.2 °C 30.17 in /  1021.6 hPa Calm     84 % 0.00 in /  0 mm
22:32 44.1 °F /  6.7 °C 39.6 °F /  4.2 °C 30.17 in /  1021.6 hPa Calm     84 % 0.00 in /  0 mm
22:37 44.2 °F /  6.8 °C 39.7 °F /  4.3 °C 30.17 in /  1021.6 hPa Calm     84 % 0.00 in /  0 mm
22:43 44.2 °F /  6.8 °C 39.7 °F /  4.3 °C 30.18 in /  1021.9 hPa Calm     84 % 0.00 in /  0 mm
22:48 44.3 °F /  6.8 °C 40.1 °F /  4.5 °C 30.18 in /  1021.9 hPa Calm     85 % 0.00 in /  0 mm
22:53 44.0 °F /  6.7 °C 39.5 °F /  4.2 °C 30.18 in /  1021.9 hPa Calm     84 % 0.00 in /  0 mm
22:58 43.9 °F /  6.6 °C 39.7 °F /  4.3 °C 30.18 in /  1021.9 hPa Calm     85 % 0.00 in /  0 mm
23:03 44.0 °F /  6.7 °C 39.8 °F /  4.3 °C 30.18 in /  1021.9 hPa Calm     85 % 0.00 in /  0 mm
23:08 43.9 °F /  6.6 °C 40.0 °F /  4.4 °C 30.18 in /  1021.9 hPa Calm     86 % 0.00 in /  0 mm
23:13 43.7 °F /  6.5 °C 39.5 °F /  4.2 °C 30.17 in /  1021.6 hPa Calm     85 % 0.00 in /  0 mm
23:18 43.4 °F /  6.3 °C 39.5 °F /  4.2 °C 30.17 in /  1021.6 hPa Calm     86 % 0.00 in /  0 mm
23:23 43.1 °F /  6.2 °C 39.2 °F /  4 °C 30.17 in /  1021.6 hPa Calm     86 % 0.00 in /  0 mm
23:28 42.9 °F /  6.1 °C 39.0 °F /  3.9 °C 30.17 in /  1021.6 hPa Calm     86 % 0.00 in /  0 mm
23:33 42.9 °F /  6.1 °C 39.3 °F /  4.1 °C 30.17 in /  1021.6 hPa Calm     87 % 0.00 in /  0 mm
23:38 43.3 °F /  6.3 °C 39.4 °F /  4.1 °C 30.17 in /  1021.6 hPa Calm     86 % 0.00 in /  0 mm
23:43 43.5 °F /  6.4 °C 39.3 °F /  4.1 °C 30.17 in /  1021.6 hPa Calm     85 % 0.00 in /  0 mm
23:48 43.0 °F /  6.1 °C 39.1 °F /  3.9 °C 30.18 in /  1021.9 hPa Calm     86 % 0.00 in /  0 mm
23:53 42.8 °F /  6 °C 38.9 °F /  3.8 °C 30.17 in /  1021.6 hPa Calm     86 % 0.00 in /  0 mm
23:58 42.8 °F /  6 °C 39.2 °F /  4 °C 30.18 in /  1021.9 hPa Calm     87 % 0.00 in /  0 mm
Park Place, Exeter, Tulare County, California, USA
Compliments of Weather Underground - 2.75 mb